sensor_id;sensor_type;location;lat;lon;timestamp;pressure;altitude;pressure_sealevel;temperature;humidity
10978;BME280;5542;48.272;10.794;2023-02-22T00:00:10;95638.72;;;5.29;66.95
10978;BME280;5542;48.272;10.794;2023-02-22T00:02:45;95633.66;;;5.21;67.27
10978;BME280;5542;48.272;10.794;2023-02-22T00:05:13;95635.47;;;5.21;67.91
10978;BME280;5542;48.272;10.794;2023-02-22T00:07:42;95634.25;;;5.17;68.01
10978;BME280;5542;48.272;10.794;2023-02-22T00:10:09;95631.06;;;5.14;68.00
10978;BME280;5542;48.272;10.794;2023-02-22T00:12:39;95631.66;;;5.10;67.86
10978;BME280;5542;48.272;10.794;2023-02-22T00:15:06;95630.22;;;5.01;67.96
10978;BME280;5542;48.272;10.794;2023-02-22T00:17:33;95630.78;;;4.96;68.20
10978;BME280;5542;48.272;10.794;2023-02-22T00:20:00;95625.78;;;4.95;67.95
10978;BME280;5542;48.272;10.794;2023-02-22T00:22:29;95623.34;;;4.93;67.99
10978;BME280;5542;48.272;10.794;2023-02-22T00:24:57;95630.78;;;4.90;67.93
10978;BME280;5542;48.272;10.794;2023-02-22T00:27:23;95626.97;;;4.92;68.02
10978;BME280;5542;48.272;10.794;2023-02-22T00:29:50;95625.38;;;4.91;68.16
10978;BME280;5542;48.272;10.794;2023-02-22T00:32:17;95626.97;;;4.92;68.13
10978;BME280;5542;48.272;10.794;2023-02-22T00:34:43;95624.94;;;4.87;68.29
10978;BME280;5542;48.272;10.794;2023-02-22T00:37:10;95622.75;;;4.84;68.02
10978;BME280;5542;48.272;10.794;2023-02-22T00:39:37;95628.13;;;4.83;67.93
10978;BME280;5542;48.272;10.794;2023-02-22T00:42:05;95630.53;;;4.78;67.56
10978;BME280;5542;48.272;10.794;2023-02-22T00:44:31;95629.47;;;4.66;67.89
10978;BME280;5542;48.272;10.794;2023-02-22T00:46:58;95626.47;;;4.69;67.99
10978;BME280;5542;48.272;10.794;2023-02-22T00:49:24;95628.84;;;4.63;68.46
10978;BME280;5542;48.272;10.794;2023-02-22T00:51:51;95629.19;;;4.54;68.54
10978;BME280;5542;48.272;10.794;2023-02-22T00:54:19;95628.78;;;4.50;68.88
10978;BME280;5542;48.272;10.794;2023-02-22T00:56:45;95630.81;;;4.55;68.80
10978;BME280;5542;48.272;10.794;2023-02-22T00:59:13;95632.44;;;4.56;68.33
10978;BME280;5542;48.272;10.794;2023-02-22T01:01:40;95621.38;;;4.54;68.29
10978;BME280;5542;48.272;10.794;2023-02-22T01:04:07;95621.16;;;4.49;68.44
10978;BME280;5542;48.272;10.794;2023-02-22T01:06:34;95619.28;;;4.36;69.07
10978;BME280;5542;48.272;10.794;2023-02-22T01:09:02;95625.88;;;4.32;69.44
10978;BME280;5542;48.272;10.794;2023-02-22T01:11:29;95616.44;;;4.31;69.56
10978;BME280;5542;48.272;10.794;2023-02-22T01:13:55;95607.81;;;4.24;69.36
10978;BME280;5542;48.272;10.794;2023-02-22T01:16:24;95613.59;;;4.19;69.50
10978;BME280;5542;48.272;10.794;2023-02-22T01:18:51;95605.56;;;4.14;69.65
10978;BME280;5542;48.272;10.794;2023-02-22T01:21:18;95602.94;;;4.14;69.72
10978;BME280;5542;48.272;10.794;2023-02-22T01:23:45;95599.53;;;4.14;69.62
10978;BME280;5542;48.272;10.794;2023-02-22T01:26:12;95611.56;;;4.15;69.53
10978;BME280;5542;48.272;10.794;2023-02-22T01:28:39;95600.56;;;4.19;69.49
10978;BME280;5542;48.272;10.794;2023-02-22T01:31:05;95604.59;;;4.22;69.72
10978;BME280;5542;48.272;10.794;2023-02-22T01:33:33;95605.59;;;4.21;69.84
10978;BME280;5542;48.272;10.794;2023-02-22T01:35:59;95600.56;;;4.19;69.94
10978;BME280;5542;48.272;10.794;2023-02-22T01:38:26;95590.94;;;4.13;70.02
10978;BME280;5542;48.272;10.794;2023-02-22T01:40:53;95590.31;;;4.11;69.85
10978;BME280;5542;48.272;10.794;2023-02-22T01:43:22;95591.31;;;4.10;69.19
10978;BME280;5542;48.272;10.794;2023-02-22T01:45:55;95582.59;;;3.96;69.72
10978;BME280;5542;48.272;10.794;2023-02-22T01:48:28;95590.75;;;3.87;69.95
10978;BME280;5542;48.272;10.794;2023-02-22T01:50:59;95580.94;;;3.89;69.68
10978;BME280;5542;48.272;10.794;2023-02-22T01:53:29;95583.38;;;3.90;70.00
10978;BME280;5542;48.272;10.794;2023-02-22T01:55:58;95578.75;;;3.85;70.15
10978;BME280;5542;48.272;10.794;2023-02-22T01:58:27;95577.75;;;3.87;70.15
10978;BME280;5542;48.272;10.794;2023-02-22T02:00:54;95576.38;;;3.91;70.16
10978;BME280;5542;48.272;10.794;2023-02-22T02:03:24;95571.53;;;3.88;70.04
10978;BME280;5542;48.272;10.794;2023-02-22T02:05:57;95570.75;;;3.87;69.95
10978;BME280;5542;48.272;10.794;2023-02-22T02:08:31;95566.53;;;3.86;70.28
10978;BME280;5542;48.272;10.794;2023-02-22T02:11:02;95569.13;;;3.86;70.04
10978;BME280;5542;48.272;10.794;2023-02-22T02:13:29;95565.88;;;3.77;70.20
10978;BME280;5542;48.272;10.794;2023-02-22T02:15:55;95572.88;;;3.77;70.07
10978;BME280;5542;48.272;10.794;2023-02-22T02:18:23;95572.25;;;3.75;70.20
10978;BME280;5542;48.272;10.794;2023-02-22T02:21:08;95575.41;;;3.70;70.62
10978;BME280;5542;48.272;10.794;2023-02-22T02:24:13;95573.41;;;3.66;70.37
10978;BME280;5542;48.272;10.794;2023-02-22T02:27:00;95578.09;;;3.55;70.34
10978;BME280;5542;48.272;10.794;2023-02-22T02:29:46;95580.66;;;3.49;70.84
10978;BME280;5542;48.272;10.794;2023-02-22T02:32:35;95575.25;;;3.50;70.78
10978;BME280;5542;48.272;10.794;2023-02-22T02:35:10;95570.78;;;3.38;71.18
10978;BME280;5542;48.272;10.794;2023-02-22T02:37:47;95574.91;;;3.32;71.42
10978;BME280;5542;48.272;10.794;2023-02-22T02:40:22;95564.94;;;3.36;71.29
10978;BME280;5542;48.272;10.794;2023-02-22T02:42:56;95563.94;;;3.37;71.13
10978;BME280;5542;48.272;10.794;2023-02-22T02:45:31;95566.97;;;3.40;71.52
10978;BME280;5542;48.272;10.794;2023-02-22T02:48:05;95561.59;;;3.42;71.78
10978;BME280;5542;48.272;10.794;2023-02-22T02:50:38;95567.66;;;3.27;71.97
10978;BME280;5542;48.272;10.794;2023-02-22T02:53:07;95568.22;;;3.23;72.40
10978;BME280;5542;48.272;10.794;2023-02-22T02:55:36;95562.66;;;3.26;72.18
10978;BME280;5542;48.272;10.794;2023-02-22T02:58:03;95562.72;;;3.32;71.75
10978;BME280;5542;48.272;10.794;2023-02-22T03:00:32;95561.06;;;3.25;71.62
10978;BME280;5542;48.272;10.794;2023-02-22T03:03:21;95561.81;;;3.19;72.01
10978;BME280;5542;48.272;10.794;2023-02-22T03:06:06;95559.00;;;3.20;71.94
10978;BME280;5542;48.272;10.794;2023-02-22T03:08:41;95548.63;;;3.20;72.16
10978;BME280;5542;48.272;10.794;2023-02-22T03:11:11;95550.22;;;3.21;72.39
10978;BME280;5542;48.272;10.794;2023-02-22T03:13:44;95547.38;;;3.16;72.68
10978;BME280;5542;48.272;10.794;2023-02-22T03:16:17;95552.31;;;3.11;72.68
10978;BME280;5542;48.272;10.794;2023-02-22T03:18:53;95540.13;;;3.12;72.55
10978;BME280;5542;48.272;10.794;2023-02-22T03:21:25;95544.88;;;3.08;72.66
10978;BME280;5542;48.272;10.794;2023-02-22T03:23:59;95542.03;;;3.03;72.55
10978;BME280;5542;48.272;10.794;2023-02-22T03:26:34;95544.16;;;2.93;72.75
10978;BME280;5542;48.272;10.794;2023-02-22T03:29:02;95545.19;;;2.98;73.09
10978;BME280;5542;48.272;10.794;2023-02-22T03:31:34;95537.84;;;3.02;72.96
10978;BME280;5542;48.272;10.794;2023-02-22T03:34:06;95542.25;;;3.01;72.83
10978;BME280;5542;48.272;10.794;2023-02-22T03:36:36;95533.44;;;3.02;72.74
10978;BME280;5542;48.272;10.794;2023-02-22T03:39:08;95534.25;;;3.03;73.35
10978;BME280;5542;48.272;10.794;2023-02-22T03:41:37;95534.44;;;3.01;73.45
10978;BME280;5542;48.272;10.794;2023-02-22T03:44:06;95527.47;;;3.02;73.55
10978;BME280;5542;48.272;10.794;2023-02-22T03:46:35;95528.88;;;3.04;73.67
10978;BME280;5542;48.272;10.794;2023-02-22T03:49:08;95520.09;;;3.05;73.72
10978;BME280;5542;48.272;10.794;2023-02-22T03:51:37;95525.75;;;3.09;73.90
10978;BME280;5542;48.272;10.794;2023-02-22T03:54:04;95527.13;;;3.12;73.62
10978;BME280;5542;48.272;10.794;2023-02-22T03:56:34;95518.53;;;3.11;73.78
10978;BME280;5542;48.272;10.794;2023-02-22T03:59:04;95524.09;;;3.08;73.46
10978;BME280;5542;48.272;10.794;2023-02-22T04:01:31;95516.94;;;3.10;73.32
10978;BME280;5542;48.272;10.794;2023-02-22T04:03:58;95520.16;;;3.12;73.08
10978;BME280;5542;48.272;10.794;2023-02-22T04:06:27;95526.94;;;3.13;72.85
10978;BME280;5542;48.272;10.794;2023-02-22T04:08:53;95514.16;;;3.12;72.68
10978;BME280;5542;48.272;10.794;2023-02-22T04:11:20;95523.13;;;3.09;73.01
10978;BME280;5542;48.272;10.794;2023-02-22T04:13:47;95525.09;;;3.07;73.22
10978;BME280;5542;48.272;10.794;2023-02-22T04:16:13;95515.34;;;3.09;73.33
10978;BME280;5542;48.272;10.794;2023-02-22T04:18:40;95518.66;;;3.03;73.24
10978;BME280;5542;48.272;10.794;2023-02-22T04:21:06;95516.03;;;2.96;73.28
10978;BME280;5542;48.272;10.794;2023-02-22T04:23:34;95521.03;;;2.98;73.15
10978;BME280;5542;48.272;10.794;2023-02-22T04:26:01;95513.22;;;2.98;73.26
10978;BME280;5542;48.272;10.794;2023-02-22T04:28:28;95508.03;;;2.98;73.29
10978;BME280;5542;48.272;10.794;2023-02-22T04:30:55;95509.22;;;2.95;73.63
10978;BME280;5542;48.272;10.794;2023-02-22T04:33:21;95503.94;;;2.89;73.40
10978;BME280;5542;48.272;10.794;2023-02-22T04:35:48;95498.75;;;2.89;73.69
10978;BME280;5542;48.272;10.794;2023-02-22T04:38:15;95504.94;;;2.88;73.48
10978;BME280;5542;48.272;10.794;2023-02-22T04:40:44;95505.59;;;2.75;73.51
10978;BME280;5542;48.272;10.794;2023-02-22T04:43:10;95510.31;;;2.65;73.69
10978;BME280;5542;48.272;10.794;2023-02-22T04:45:37;95506.66;;;2.59;74.05
10978;BME280;5542;48.272;10.794;2023-02-22T04:48:03;95504.50;;;2.63;74.10
10978;BME280;5542;48.272;10.794;2023-02-22T04:50:30;95492.75;;;2.67;73.62
10978;BME280;5542;48.272;10.794;2023-02-22T04:52:56;95488.53;;;2.66;73.56
10978;BME280;5542;48.272;10.794;2023-02-22T04:55:23;95489.16;;;2.68;73.53
10978;BME280;5542;48.272;10.794;2023-02-22T04:57:51;95488.19;;;2.69;73.27
10978;BME280;5542;48.272;10.794;2023-02-22T05:00:18;95486.94;;;2.65;72.75
10978;BME280;5542;48.272;10.794;2023-02-22T05:02:46;95496.25;;;2.59;72.69
10978;BME280;5542;48.272;10.794;2023-02-22T05:05:13;95488.41;;;2.52;72.90
10978;BME280;5542;48.272;10.794;2023-02-22T05:07:39;95497.00;;;2.53;73.23
10978;BME280;5542;48.272;10.794;2023-02-22T05:10:07;95494.78;;;2.50;73.51
10978;BME280;5542;48.272;10.794;2023-02-22T05:12:34;95502.91;;;2.47;73.58
10978;BME280;5542;48.272;10.794;2023-02-22T05:15:02;95493.16;;;2.49;73.62
10978;BME280;5542;48.272;10.794;2023-02-22T05:17:28;95497.72;;;2.47;73.70
10978;BME280;5542;48.272;10.794;2023-02-22T05:19:55;95497.72;;;2.47;73.97
10978;BME280;5542;48.272;10.794;2023-02-22T05:22:22;95488.34;;;2.46;74.13
10978;BME280;5542;48.272;10.794;2023-02-22T05:24:48;95491.13;;;2.44;74.24
10978;BME280;5542;48.272;10.794;2023-02-22T05:27:17;95492.97;;;2.50;73.89
10978;BME280;5542;48.272;10.794;2023-02-22T05:29:43;95494.88;;;2.42;73.93
10978;BME280;5542;48.272;10.794;2023-02-22T05:32:11;95491.66;;;2.40;73.43
10978;BME280;5542;48.272;10.794;2023-02-22T05:34:38;95490.41;;;2.36;73.61
10978;BME280;5542;48.272;10.794;2023-02-22T05:37:05;95492.75;;;2.30;73.96
10978;BME280;5542;48.272;10.794;2023-02-22T05:39:31;95488.19;;;2.33;74.02
10978;BME280;5542;48.272;10.794;2023-02-22T05:41:58;95487.81;;;2.36;74.10
10978;BME280;5542;48.272;10.794;2023-02-22T05:44:24;95484.06;;;2.38;73.65
10978;BME280;5542;48.272;10.794;2023-02-22T05:46:52;95485.22;;;2.36;73.84
10978;BME280;5542;48.272;10.794;2023-02-22T05:49:20;95478.63;;;2.33;73.69
10978;BME280;5542;48.272;10.794;2023-02-22T05:51:46;95482.63;;;2.36;73.52
10978;BME280;5542;48.272;10.794;2023-02-22T05:54:13;95484.38;;;2.28;73.35
10978;BME280;5542;48.272;10.794;2023-02-22T05:56:39;95482.94;;;2.26;73.33
10978;BME280;5542;48.272;10.794;2023-02-22T05:59:06;95487.50;;;2.24;73.43
10978;BME280;5542;48.272;10.794;2023-02-22T06:01:32;95484.13;;;2.23;73.86
10978;BME280;5542;48.272;10.794;2023-02-22T06:03:59;95480.88;;;2.21;73.84
10978;BME280;5542;48.272;10.794;2023-02-22T06:06:27;95488.66;;;2.21;73.93
10978;BME280;5542;48.272;10.794;2023-02-22T06:08:53;95485.88;;;2.23;74.12
10978;BME280;5542;48.272;10.794;2023-02-22T06:11:20;95480.88;;;2.21;74.56
10978;BME280;5542;48.272;10.794;2023-02-22T06:13:50;95483.81;;;2.18;74.69
10978;BME280;5542;48.272;10.794;2023-02-22T06:16:19;95485.09;;;2.08;74.60
10978;BME280;5542;48.272;10.794;2023-02-22T06:18:47;95486.56;;;1.95;75.05
10978;BME280;5542;48.272;10.794;2023-02-22T06:21:13;95483.50;;;1.92;74.98
10978;BME280;5542;48.272;10.794;2023-02-22T06:23:42;95488.06;;;1.90;75.02
10978;BME280;5542;48.272;10.794;2023-02-22T06:26:09;95491.47;;;1.90;75.07
10978;BME280;5542;48.272;10.794;2023-02-22T06:28:35;95492.09;;;1.92;75.14
10978;BME280;5542;48.272;10.794;2023-02-22T06:31:02;95489.56;;;1.99;75.16
10978;BME280;5542;48.272;10.794;2023-02-22T06:33:29;95495.03;;;2.04;75.27
10978;BME280;5542;48.272;10.794;2023-02-22T06:35:55;95488.50;;;2.08;75.08
10978;BME280;5542;48.272;10.794;2023-02-22T06:38:24;95501.84;;;2.05;75.07
10978;BME280;5542;48.272;10.794;2023-02-22T06:40:53;95503.09;;;2.09;74.91
10978;BME280;5542;48.272;10.794;2023-02-22T06:43:20;95509.69;;;2.12;74.73
10978;BME280;5542;48.272;10.794;2023-02-22T06:45:48;95494.69;;;2.07;74.80
10978;BME280;5542;48.272;10.794;2023-02-22T06:48:15;95507.84;;;2.05;74.85
10978;BME280;5542;48.272;10.794;2023-02-22T06:50:41;95512.56;;;2.02;75.32
10978;BME280;5542;48.272;10.794;2023-02-22T06:53:08;95513.03;;;2.05;75.06
10978;BME280;5542;48.272;10.794;2023-02-22T06:55:35;95510.59;;;2.04;75.88
10978;BME280;5542;48.272;10.794;2023-02-22T06:58:03;95512.84;;;2.07;76.27
10978;BME280;5542;48.272;10.794;2023-02-22T07:00:30;95511.66;;;2.24;76.56
10978;BME280;5542;48.272;10.794;2023-02-22T07:02:58;95516.44;;;2.57;76.02
10978;BME280;5542;48.272;10.794;2023-02-22T07:05:25;95517.56;;;2.91;74.58
10978;BME280;5542;48.272;10.794;2023-02-22T07:07:54;95510.09;;;3.30;73.32
10978;BME280;5542;48.272;10.794;2023-02-22T07:10:28;95507.75;;;3.64;71.94
10978;BME280;5542;48.272;10.794;2023-02-22T07:12:55;95514.72;;;3.91;71.19
10978;BME280;5542;48.272;10.794;2023-02-22T07:15:24;95519.09;;;4.19;69.57
10978;BME280;5542;48.272;10.794;2023-02-22T07:17:52;95520.56;;;4.41;69.46
10978;BME280;5542;48.272;10.794;2023-02-22T07:20:20;95512.25;;;4.72;68.06
10978;BME280;5542;48.272;10.794;2023-02-22T07:22:47;95504.28;;;5.00;67.44
10978;BME280;5542;48.272;10.794;2023-02-22T07:25:14;95509.16;;;5.36;66.15
10978;BME280;5542;48.272;10.794;2023-02-22T07:27:41;95506.91;;;5.73;65.35
10978;BME280;5542;48.272;10.794;2023-02-22T07:30:14;95501.47;;;6.08;64.07
10978;BME280;5542;48.272;10.794;2023-02-22T07:32:43;95499.72;;;6.47;63.08
10978;BME280;5542;48.272;10.794;2023-02-22T07:35:13;95495.88;;;6.87;61.22
10978;BME280;5542;48.272;10.794;2023-02-22T07:37:41;95492.47;;;7.12;60.16
10978;BME280;5542;48.272;10.794;2023-02-22T07:40:08;95490.69;;;7.37;59.02
10978;BME280;5542;48.272;10.794;2023-02-22T07:42:49;95486.78;;;7.72;57.91
10978;BME280;5542;48.272;10.794;2023-02-22T07:45:16;95485.84;;;8.21;55.49
10978;BME280;5542;48.272;10.794;2023-02-22T07:47:44;95484.16;;;8.63;53.99
10978;BME280;5542;48.272;10.794;2023-02-22T07:50:12;95467.56;;;9.00;51.71
10978;BME280;5542;48.272;10.794;2023-02-22T07:52:38;95467.72;;;9.16;51.53
10978;BME280;5542;48.272;10.794;2023-02-22T07:55:05;95462.03;;;9.43;50.70
10978;BME280;5542;48.272;10.794;2023-02-22T07:57:32;95462.38;;;9.58;49.78
10978;BME280;5542;48.272;10.794;2023-02-22T07:59:58;95454.84;;;9.85;49.05
10978;BME280;5542;48.272;10.794;2023-02-22T08:02:25;95452.63;;;10.17;47.50
10978;BME280;5542;48.272;10.794;2023-02-22T08:04:53;95449.97;;;10.41;47.26
10978;BME280;5542;48.272;10.794;2023-02-22T08:07:19;95450.59;;;10.60;45.72
10978;BME280;5542;48.272;10.794;2023-02-22T08:09:46;95444.47;;;10.71;44.62
10978;BME280;5542;48.272;10.794;2023-02-22T08:12:13;95446.78;;;10.67;44.62
10978;BME280;5542;48.272;10.794;2023-02-22T08:14:40;95451.50;;;10.65;44.25
10978;BME280;5542;48.272;10.794;2023-02-22T08:17:07;95442.44;;;10.73;43.87
10978;BME280;5542;48.272;10.794;2023-02-22T08:19:34;95443.13;;;10.68;44.08
10978;BME280;5542;48.272;10.794;2023-02-22T08:22:02;95446.50;;;10.52;44.24
10978;BME280;5542;48.272;10.794;2023-02-22T08:24:28;95443.75;;;10.59;45.96
10978;BME280;5542;48.272;10.794;2023-02-22T08:26:56;95448.75;;;11.06;45.00
10978;BME280;5542;48.272;10.794;2023-02-22T08:29:23;95445.44;;;11.27;44.47
10978;BME280;5542;48.272;10.794;2023-02-22T08:31:57;95447.63;;;11.30;43.84
10978;BME280;5542;48.272;10.794;2023-02-22T08:34:24;95448.25;;;11.20;43.91
10978;BME280;5542;48.272;10.794;2023-02-22T08:36:51;95453.75;;;11.36;44.38
10978;BME280;5542;48.272;10.794;2023-02-22T08:39:19;95449.66;;;11.62;44.84
10978;BME280;5542;48.272;10.794;2023-02-22T08:41:45;95449.50;;;11.85;44.94
10978;BME280;5542;48.272;10.794;2023-02-22T08:44:12;95447.28;;;12.16;44.51
10978;BME280;5542;48.272;10.794;2023-02-22T08:46:39;95445.00;;;12.24;42.34
10978;BME280;5542;48.272;10.794;2023-02-22T08:49:05;95445.81;;;12.25;41.98
10978;BME280;5542;48.272;10.794;2023-02-22T08:51:34;95445.06;;;12.29;41.48
10978;BME280;5542;48.272;10.794;2023-02-22T08:54:00;95439.91;;;12.18;41.81
10978;BME280;5542;48.272;10.794;2023-02-22T08:56:29;95439.31;;;12.11;42.23
10978;BME280;5542;48.272;10.794;2023-02-22T08:58:56;95444.22;;;12.02;41.88
10978;BME280;5542;48.272;10.794;2023-02-22T09:01:23;95441.66;;;11.90;42.48
10978;BME280;5542;48.272;10.794;2023-02-22T09:03:50;95439.84;;;12.13;42.76
10978;BME280;5542;48.272;10.794;2023-02-22T09:06:17;95447.97;;;12.50;41.46
10978;BME280;5542;48.272;10.794;2023-02-22T09:08:46;95440.00;;;12.45;41.50
10978;BME280;5542;48.272;10.794;2023-02-22T09:11:12;95436.03;;;12.47;41.42
10978;BME280;5542;48.272;10.794;2023-02-22T09:13:40;95437.25;;;12.62;41.52
10978;BME280;5542;48.272;10.794;2023-02-22T09:16:07;95436.50;;;12.66;41.81
10978;BME280;5542;48.272;10.794;2023-02-22T09:18:34;95426.84;;;12.77;41.89
10978;BME280;5542;48.272;10.794;2023-02-22T09:21:01;95428.88;;;12.92;41.60
10978;BME280;5542;48.272;10.794;2023-02-22T09:23:27;95424.84;;;13.16;41.14
10978;BME280;5542;48.272;10.794;2023-02-22T09:25:54;95417.22;;;13.52;40.72
10978;BME280;5542;48.272;10.794;2023-02-22T09:28:21;95416.06;;;13.75;40.57
10978;BME280;5542;48.272;10.794;2023-02-22T09:30:49;95413.38;;;13.70;39.71
10978;BME280;5542;48.272;10.794;2023-02-22T09:33:17;95413.22;;;13.44;39.71
10978;BME280;5542;48.272;10.794;2023-02-22T09:35:46;95417.59;;;13.01;40.38
10978;BME280;5542;48.272;10.794;2023-02-22T09:38:15;95413.47;;;12.84;40.15
10978;BME280;5542;48.272;10.794;2023-02-22T09:40:47;95416.09;;;12.56;41.29
10978;BME280;5542;48.272;10.794;2023-02-22T09:43:24;95414.72;;;12.76;41.76
10978;BME280;5542;48.272;10.794;2023-02-22T09:46:11;95408.78;;;12.91;41.41
10978;BME280;5542;48.272;10.794;2023-02-22T09:48:52;95409.22;;;12.55;41.25
10978;BME280;5542;48.272;10.794;2023-02-22T09:51:24;95413.34;;;12.46;41.70
10978;BME280;5542;48.272;10.794;2023-02-22T09:53:55;95408.56;;;12.43;42.26
10978;BME280;5542;48.272;10.794;2023-02-22T09:56:24;95408.69;;;12.53;40.99
10978;BME280;5542;48.272;10.794;2023-02-22T09:58:54;95402.81;;;12.46;40.55
10978;BME280;5542;48.272;10.794;2023-02-22T10:01:27;95403.84;;;12.45;41.05
10978;BME280;5542;48.272;10.794;2023-02-22T10:04:00;95403.50;;;12.37;40.46
10978;BME280;5542;48.272;10.794;2023-02-22T10:06:30;95398.28;;;12.42;40.95
10978;BME280;5542;48.272;10.794;2023-02-22T10:09:00;95398.47;;;12.35;41.46
10978;BME280;5542;48.272;10.794;2023-02-22T10:11:43;95395.63;;;12.20;42.05
10978;BME280;5542;48.272;10.794;2023-02-22T10:17:14;95386.38;;;11.95;42.50
10978;BME280;5542;48.272;10.794;2023-02-22T10:19:54;95387.25;;;12.01;43.75
10978;BME280;5542;48.272;10.794;2023-02-22T10:22:39;95384.56;;;12.18;43.62
10978;BME280;5542;48.272;10.794;2023-02-22T10:25:12;95390.00;;;12.33;43.42
10978;BME280;5542;48.272;10.794;2023-02-22T10:27:45;95379.28;;;12.40;43.29
10978;BME280;5542;48.272;10.794;2023-02-22T10:30:17;95375.88;;;12.71;43.48
10978;BME280;5542;48.272;10.794;2023-02-22T10:32:50;95375.47;;;12.57;42.88
10978;BME280;5542;48.272;10.794;2023-02-22T10:35:21;95369.50;;;12.67;42.83
10978;BME280;5542;48.272;10.794;2023-02-22T10:37:52;95372.88;;;12.63;42.69
10978;BME280;5542;48.272;10.794;2023-02-22T10:40:22;95368.78;;;12.77;42.64
10978;BME280;5542;48.272;10.794;2023-02-22T10:42:57;95363.88;;;12.86;41.89
10978;BME280;5542;48.272;10.794;2023-02-22T10:45:27;95362.88;;;12.92;40.31
10978;BME280;5542;48.272;10.794;2023-02-22T10:48:00;95361.53;;;12.89;41.07
10978;BME280;5542;48.272;10.794;2023-02-22T10:50:33;95360.44;;;12.85;41.39
10978;BME280;5542;48.272;10.794;2023-02-22T10:53:00;95358.97;;;12.99;41.06
10978;BME280;5542;48.272;10.794;2023-02-22T10:55:28;95363.41;;;12.94;41.76
10978;BME280;5542;48.272;10.794;2023-02-22T10:57:59;95361.97;;;13.13;42.71
10978;BME280;5542;48.272;10.794;2023-02-22T11:00:29;95372.22;;;13.04;42.99
10978;BME280;5542;48.272;10.794;2023-02-22T11:02:59;95360.09;;;13.08;42.84
10978;BME280;5542;48.272;10.794;2023-02-22T11:05:30;95364.84;;;12.74;44.68
10978;BME280;5542;48.272;10.794;2023-02-22T11:08:15;95361.03;;;12.92;43.40
10978;BME280;5542;48.272;10.794;2023-02-22T11:10:42;95349.09;;;12.85;44.57
10978;BME280;5542;48.272;10.794;2023-02-22T11:13:23;95344.69;;;12.95;42.82
10978;BME280;5542;48.272;10.794;2023-02-22T11:15:51;95345.81;;;13.04;43.50
10978;BME280;5542;48.272;10.794;2023-02-22T11:18:24;95336.94;;;13.16;43.64
10978;BME280;5542;48.272;10.794;2023-02-22T11:20:59;95337.56;;;13.28;44.23
10978;BME280;5542;48.272;10.794;2023-02-22T11:23:26;95336.63;;;13.44;43.72
10978;BME280;5542;48.272;10.794;2023-02-22T11:26:01;95335.59;;;13.50;43.59
10978;BME280;5542;48.272;10.794;2023-02-22T11:28:29;95321.19;;;13.73;43.32
10978;BME280;5542;48.272;10.794;2023-02-22T11:31:08;95325.09;;;13.66;42.44
10978;BME280;5542;48.272;10.794;2023-02-22T11:33:37;95319.16;;;13.43;43.30
10978;BME280;5542;48.272;10.794;2023-02-22T11:36:05;95307.84;;;13.53;44.09
10978;BME280;5542;48.272;10.794;2023-02-22T11:38:35;95309.19;;;13.55;44.43
10978;BME280;5542;48.272;10.794;2023-02-22T11:41:13;95302.84;;;13.51;43.47
10978;BME280;5542;48.272;10.794;2023-02-22T11:43:40;95302.97;;;13.77;42.94
10978;BME280;5542;48.272;10.794;2023-02-22T11:46:12;95300.47;;;13.55;43.52
10978;BME280;5542;48.272;10.794;2023-02-22T11:48:56;95303.38;;;13.48;45.10
10978;BME280;5542;48.272;10.794;2023-02-22T11:51:50;95300.78;;;13.64;44.87
10978;BME280;5542;48.272;10.794;2023-02-22T11:54:31;95294.53;;;13.85;44.03
10978;BME280;5542;48.272;10.794;2023-02-22T11:57:11;95291.97;;;14.11;44.12
10978;BME280;5542;48.272;10.794;2023-02-22T11:59:49;95285.13;;;14.25;42.98
10978;BME280;5542;48.272;10.794;2023-02-22T12:02:31;95284.63;;;14.43;41.65
10978;BME280;5542;48.272;10.794;2023-02-22T12:05:16;95278.81;;;14.46;41.29
10978;BME280;5542;48.272;10.794;2023-02-22T12:08:00;95277.81;;;14.63;41.39
10978;BME280;5542;48.272;10.794;2023-02-22T12:10:42;95275.69;;;14.59;41.55
10978;BME280;5542;48.272;10.794;2023-02-22T12:13:24;95267.22;;;14.57;40.85
10978;BME280;5542;48.272;10.794;2023-02-22T12:16:01;95272.25;;;14.64;40.80
10978;BME280;5542;48.272;10.794;2023-02-22T12:18:34;95268.25;;;14.67;41.81
10978;BME280;5542;48.272;10.794;2023-02-22T12:21:10;95266.13;;;14.89;41.19
10978;BME280;5542;48.272;10.794;2023-02-22T12:23:44;95267.72;;;14.85;42.04
10978;BME280;5542;48.272;10.794;2023-02-22T12:26:18;95269.56;;;14.95;41.18
10978;BME280;5542;48.272;10.794;2023-02-22T12:28:54;95262.44;;;14.90;40.82
10978;BME280;5542;48.272;10.794;2023-02-22T12:31:27;95253.94;;;14.98;35.50
10978;BME280;5542;48.272;10.794;2023-02-22T12:34:01;95245.97;;;15.19;34.24
10978;BME280;5542;48.272;10.794;2023-02-22T12:36:37;95252.59;;;15.16;34.37
10978;BME280;5542;48.272;10.794;2023-02-22T12:39:24;95257.16;;;15.00;36.25
10978;BME280;5542;48.272;10.794;2023-02-22T12:41:54;95251.81;;;15.10;36.96
10978;BME280;5542;48.272;10.794;2023-02-22T12:44:25;95248.09;;;15.17;36.44
10978;BME280;5542;48.272;10.794;2023-02-22T12:46:56;95253.69;;;15.05;37.20
10978;BME280;5542;48.272;10.794;2023-02-22T12:49:30;95248.91;;;15.12;37.38
10978;BME280;5542;48.272;10.794;2023-02-22T12:52:06;95247.84;;;15.08;37.39
10978;BME280;5542;48.272;10.794;2023-02-22T12:54:42;95239.09;;;15.18;35.88
10978;BME280;5542;48.272;10.794;2023-02-22T12:57:17;95240.66;;;15.24;36.61
10978;BME280;5542;48.272;10.794;2023-02-22T12:59:47;95238.56;;;15.16;36.67
10978;BME280;5542;48.272;10.794;2023-02-22T13:02:19;95238.56;;;15.16;37.23
10978;BME280;5542;48.272;10.794;2023-02-22T13:04:48;95237.50;;;15.22;38.11
10978;BME280;5542;48.272;10.794;2023-02-22T13:07:28;95239.34;;;15.21;38.08
10978;BME280;5542;48.272;10.794;2023-02-22T13:10:23;95245.47;;;15.11;38.84
10978;BME280;5542;48.272;10.794;2023-02-22T13:12:58;95238.59;;;15.00;38.14
10978;BME280;5542;48.272;10.794;2023-02-22T13:15:36;95248.13;;;14.81;39.18
10978;BME280;5542;48.272;10.794;2023-02-22T13:18:12;95242.06;;;14.75;39.03
10978;BME280;5542;48.272;10.794;2023-02-22T13:20:45;95238.09;;;14.78;39.55
10978;BME280;5542;48.272;10.794;2023-02-22T13:23:25;95230.41;;;14.87;39.97
10978;BME280;5542;48.272;10.794;2023-02-22T13:26:00;95231.69;;;14.99;38.88